Crystal City, Canada
Current Conditions -  °F | °C
As of 1:55 PM on Monday 22 Dec 2014 (Local Time) from K06D Reporting Station
Unknown Precip Unknown Precip  
Wind Chill: 23°   Ceiling: 200
Heat Index: 32°   Visibility: 3mi
Dew Point: 32°   Wind: 13mph
Humidity: 100%   Direction: 20°NNE
Pressure: 29.58"   Gusts: NA
Location:  49.13°N, 98.95°W
Report Text: K06D 221955Z AUTO 02011KT 3SM UP OVC002 00/00 A2958 RMK AO2
Loading
Personal Weather Stations






























Interactive Weather Map New forecast layout! Learn more

10-Day Weather Forecast

Advertisements
Track Severe Weather on mobile